createdAt,value
2018-01-07T00:01:37.188Z,33.40
2018-01-07T00:04:05.552Z,34.27
2018-01-07T00:06:34.104Z,33.60
2018-01-07T00:09:02.951Z,34.00
2018-01-07T00:11:31.321Z,34.00
2018-01-07T00:13:59.715Z,34.90
2018-01-07T00:16:27.745Z,35.20
2018-01-07T00:18:56.427Z,35.37
2018-01-07T00:21:24.829Z,31.43
2018-01-07T00:23:53.328Z,32.97
2018-01-07T00:26:21.687Z,33.10
2018-01-07T00:28:50.054Z,32.87
2018-01-07T00:31:18.408Z,32.73
2018-01-07T00:33:46.812Z,32.37
2018-01-07T00:36:15.182Z,32.20
2018-01-07T00:38:43.528Z,31.13
2018-01-07T00:41:12.671Z,30.20
2018-01-07T00:43:41.054Z,29.97
2018-01-07T00:46:09.484Z,30.40
2018-01-07T00:48:38.634Z,29.20
2018-01-07T00:51:07.104Z,27.43
2018-01-07T00:53:36.160Z,28.90
2018-01-07T00:56:05.297Z,29.00
2018-01-07T00:58:33.662Z,28.03
2018-01-07T01:01:02.068Z,26.93
2018-01-07T01:03:30.469Z,28.47
2018-01-07T01:05:59.754Z,26.23
2018-01-07T01:08:28.124Z,26.13
2018-01-07T01:10:56.723Z,24.80
2018-01-07T01:13:25.105Z,23.60
2018-01-07T01:15:53.460Z,23.37
2018-01-07T01:18:21.907Z,22.37
2018-01-07T01:20:50.441Z,22.90
2018-01-07T01:23:18.853Z,22.37
2018-01-07T01:25:47.205Z,22.47
2018-01-07T01:28:16.336Z,21.70
2018-01-07T01:30:44.687Z,21.17
2018-01-07T01:33:14.175Z,21.43
2018-01-07T01:35:42.532Z,22.53
2018-01-07T01:38:10.899Z,22.13
2018-01-07T01:40:39.265Z,21.87
2018-01-07T01:43:07.662Z,21.80
2018-01-07T01:45:36.215Z,19.77
2018-01-07T01:48:04.608Z,21.43
2018-01-07T01:50:32.975Z,21.33
2018-01-07T01:53:01.351Z,20.63
2018-01-07T01:55:29.734Z,19.30
2018-01-07T01:57:58.162Z,19.13
2018-01-07T02:00:27.340Z,19.77
2018-01-07T02:02:55.779Z,19.20
2018-01-07T02:05:24.198Z,20.00
2018-01-07T02:07:52.578Z,21.00
2018-01-07T02:10:20.949Z,19.20
2018-01-07T02:12:49.317Z,19.77
2018-01-07T02:15:17.708Z,19.70
2018-01-07T02:17:46.878Z,20.17
2018-01-07T02:20:15.490Z,19.87
2018-01-07T02:22:43.859Z,19.57
2018-01-07T02:25:12.381Z,19.07
2018-01-07T02:27:41.528Z,18.33
2018-01-07T02:30:10.094Z,19.07
2018-01-07T02:32:38.488Z,20.10
2018-01-07T02:35:06.950Z,20.00
2018-01-07T02:37:35.318Z,18.73
2018-01-07T02:40:03.787Z,18.13
2018-01-07T02:42:32.719Z,18.60
2018-01-07T02:45:01.111Z,19.40
2018-01-07T02:47:29.503Z,20.70
2018-01-07T02:49:57.903Z,20.47
2018-01-07T02:52:27.050Z,19.13
2018-01-07T02:54:55.457Z,18.90
2018-01-07T02:57:23.862Z,18.47
2018-01-07T02:59:53.061Z,18.80
2018-01-07T03:02:22.213Z,19.50
2018-01-07T03:04:50.582Z,18.07
2018-01-07T03:07:18.939Z,19.20
2018-01-07T03:09:47.350Z,18.50
2018-01-07T03:12:15.819Z,17.27
2018-01-07T03:14:44.182Z,19.43
2018-01-07T03:17:12.559Z,18.90
2018-01-07T03:19:40.925Z,17.77
2018-01-07T03:22:09.268Z,17.67
2018-01-07T03:24:38.432Z,17.00
2018-01-07T03:27:06.813Z,17.63
2018-01-07T03:29:35.196Z,18.77
2018-01-07T03:32:03.560Z,18.30
2018-01-07T03:34:31.954Z,17.73
2018-01-07T03:37:00.322Z,18.07
2018-01-07T03:39:28.690Z,17.47
2018-01-07T03:41:57.068Z,18.63
2018-01-07T03:44:25.487Z,17.70
2018-01-07T03:46:54.637Z,18.03
2018-01-07T03:49:23.041Z,17.07
2018-01-07T03:51:51.406Z,18.27
2018-01-07T03:54:19.760Z,17.03
2018-01-07T03:56:48.136Z,18.77
2018-01-07T03:59:16.482Z,18.33
2018-01-07T04:01:44.859Z,18.90
2018-01-07T04:04:14.051Z,17.30
2018-01-07T04:06:43.207Z,18.97
2018-01-07T04:09:11.764Z,18.30
2018-01-07T04:11:40.176Z,17.00
2018-01-07T04:14:08.546Z,16.77
2018-01-07T04:16:36.928Z,16.50
2018-01-07T04:19:05.294Z,16.77
2018-01-07T04:21:33.675Z,16.70
2018-01-07T04:24:02.752Z,16.47
2018-01-07T04:26:31.086Z,16.03
2018-01-07T04:29:00.243Z,16.77
2018-01-07T04:31:28.703Z,14.90
2018-01-07T04:33:57.110Z,15.07
2018-01-07T04:36:26.075Z,14.60
2018-01-07T04:38:54.621Z,13.83
2018-01-07T04:41:23.090Z,13.90
2018-01-07T04:43:52.349Z,14.17
2018-01-07T04:46:20.739Z,11.73
2018-01-07T04:48:49.230Z,11.67
2018-01-07T04:51:17.592Z,12.00
2018-01-07T04:53:45.977Z,10.90
2018-01-07T04:56:14.345Z,10.77
2018-01-07T04:58:42.722Z,8.73
2018-01-07T05:01:11.109Z,10.53
2018-01-07T05:03:39.581Z,10.53
2018-01-07T05:06:09.157Z,10.57
2018-01-07T05:08:37.499Z,9.57
2018-01-07T05:11:06.657Z,9.23
2018-01-07T05:13:35.020Z,9.43
2018-01-07T05:16:03.430Z,8.67
2018-01-07T05:18:31.803Z,9.03
2018-01-07T05:21:00.156Z,8.13
2018-01-07T05:23:28.523Z,8.90
2018-01-07T05:25:57.037Z,9.33
2018-01-07T05:28:25.065Z,9.10
2018-01-07T05:30:53.730Z,9.53
2018-01-07T05:33:22.933Z,9.67
2018-01-07T05:35:52.055Z,8.60
2018-01-07T05:38:20.572Z,8.10
2018-01-07T05:40:49.109Z,9.30
2018-01-07T05:43:17.462Z,8.90
2018-01-07T05:45:46.742Z,9.00
2018-01-07T05:48:14.854Z,9.00
2018-01-07T05:50:43.222Z,8.50
2018-01-07T05:53:11.577Z,8.00
2018-01-07T05:55:40.864Z,7.97
2018-01-07T05:58:09.983Z,7.50
2018-01-07T06:00:39.135Z,7.90
2018-01-07T06:03:07.494Z,7.77
2018-01-07T06:05:36.179Z,7.77
2018-01-07T06:08:04.758Z,7.50
2018-01-07T06:10:33.129Z,8.07
2018-01-07T06:13:01.482Z,7.70
2018-01-07T06:15:29.839Z,7.07
2018-01-07T06:18:00.057Z,8.00
2018-01-07T06:20:28.396Z,7.67
2018-01-07T06:22:56.938Z,7.97
2018-01-07T06:25:25.368Z,7.53
2018-01-07T06:27:53.734Z,8.17
2018-01-07T06:30:22.291Z,7.40
2018-01-07T06:32:50.985Z,7.80
2018-01-07T06:35:19.330Z,8.10
2018-01-07T06:37:48.448Z,8.17
2018-01-07T06:40:16.837Z,7.80
2018-01-07T06:42:45.194Z,7.33
2018-01-07T06:45:13.556Z,7.30
2018-01-07T06:47:42.670Z,7.53
2018-01-07T06:50:11.035Z,7.70
2018-01-07T06:52:40.183Z,7.37
2018-01-07T06:55:08.831Z,7.47
2018-01-07T06:57:37.184Z,7.63
2018-01-07T07:00:06.578Z,7.60
2018-01-07T07:02:34.935Z,7.17
2018-01-07T07:05:03.299Z,7.03
2018-01-07T07:07:31.697Z,7.53
2018-01-07T07:10:00.072Z,7.97
2018-01-07T07:12:28.418Z,8.37
2018-01-07T07:14:56.848Z,7.43
2018-01-07T07:17:26.105Z,7.97
2018-01-07T07:19:54.532Z,8.53
2018-01-07T07:22:23.789Z,9.33
2018-01-07T07:24:52.226Z,10.37
2018-01-07T07:27:20.603Z,10.60
2018-01-07T07:29:49.731Z,11.33
2018-01-07T07:32:18.261Z,10.27
2018-01-07T07:34:47.394Z,10.27
2018-01-07T07:37:15.762Z,10.10
2018-01-07T07:39:44.259Z,9.70
2018-01-07T07:42:12.774Z,9.97
2018-01-07T07:44:41.141Z,9.60
2018-01-07T07:47:09.534Z,9.37
2018-01-07T07:49:38.024Z,9.23
2018-01-07T07:52:06.436Z,10.80
2018-01-07T07:54:35.029Z,10.20
2018-01-07T07:57:03.552Z,9.77
2018-01-07T07:59:32.020Z,10.33
2018-01-07T08:02:00.383Z,10.33
2018-01-07T08:04:28.897Z,9.50
2018-01-07T08:06:57.430Z,9.70
2018-01-07T08:09:25.817Z,9.60
2018-01-07T08:11:54.325Z,10.77
2018-01-07T08:14:22.709Z,9.20
2018-01-07T08:16:51.563Z,9.87
2018-01-07T08:19:19.950Z,9.33
2018-01-07T08:21:48.320Z,8.97
2018-01-07T08:24:16.706Z,9.37
2018-01-07T08:26:45.074Z,9.17
2018-01-07T08:29:13.502Z,9.30
2018-01-07T08:31:41.561Z,7.70
2018-01-07T08:34:09.932Z,8.07
2018-01-07T08:36:38.363Z,8.50
2018-01-07T08:39:07.486Z,8.13
2018-01-07T08:41:35.854Z,8.37
2018-01-07T08:44:04.216Z,8.27
2018-01-07T08:46:32.792Z,8.80
2018-01-07T08:49:01.159Z,9.00
2018-01-07T08:51:30.533Z,7.70
2018-01-07T08:54:01.083Z,8.73
2018-01-07T08:56:30.224Z,8.20
2018-01-07T08:58:58.640Z,8.60
2018-01-07T09:01:27.060Z,8.70
2018-01-07T09:03:55.410Z,8.60
2018-01-07T09:06:24.964Z,9.27
2018-01-07T09:08:53.513Z,8.30
2018-01-07T09:11:22.713Z,8.60
2018-01-07T09:13:51.134Z,9.00
2018-01-07T09:16:19.527Z,8.63
2018-01-07T09:18:47.908Z,8.87
2018-01-07T09:21:16.285Z,7.90
2018-01-07T09:23:44.935Z,8.30
2018-01-07T09:26:13.284Z,7.63
2018-01-07T09:28:42.715Z,8.20
2018-01-07T09:31:11.056Z,8.97
2018-01-07T09:33:40.214Z,9.20
2018-01-07T09:36:08.605Z,8.70
2018-01-07T09:38:36.970Z,8.20
2018-01-07T09:41:05.374Z,8.20
2018-01-07T09:43:33.756Z,7.37
2018-01-07T09:46:02.116Z,8.03
2018-01-07T09:48:30.661Z,8.77
2018-01-07T09:50:59.016Z,8.33
2018-01-07T09:53:27.421Z,8.43
2018-01-07T09:55:55.818Z,8.30
2018-01-07T09:58:24.184Z,8.00
2018-01-07T10:00:52.803Z,7.73
2018-01-07T10:03:21.167Z,7.33
2018-01-07T10:05:49.562Z,8.10
2018-01-07T10:08:18.014Z,7.60
2018-01-07T10:10:46.392Z,8.07
2018-01-07T10:13:14.988Z,7.03
2018-01-07T10:15:43.356Z,7.80
2018-01-07T10:18:11.749Z,7.23
2018-01-07T10:20:40.938Z,6.73
2018-01-07T10:23:09.348Z,7.03
2018-01-07T10:25:38.604Z,7.10
2018-01-07T10:28:07.009Z,6.87
2018-01-07T10:30:35.405Z,6.73
2018-01-07T10:33:04.526Z,7.00
2018-01-07T10:35:33.092Z,7.13
2018-01-07T10:38:02.240Z,6.77
2018-01-07T10:40:30.609Z,6.53
2018-01-07T10:42:59.128Z,7.27
2018-01-07T10:45:27.500Z,6.90
2018-01-07T10:47:55.948Z,7.30
2018-01-07T10:50:24.712Z,6.70
2018-01-07T10:52:53.276Z,6.30
2018-01-07T10:55:22.503Z,6.70
2018-01-07T10:57:50.903Z,6.67
2018-01-07T11:00:19.274Z,6.50
2018-01-07T11:02:47.690Z,6.47
2018-01-07T11:05:16.148Z,6.90
2018-01-07T11:07:44.587Z,7.30
2018-01-07T11:10:12.964Z,7.10
2018-01-07T11:12:41.329Z,6.07
2018-01-07T11:15:09.724Z,5.93
2018-01-07T11:17:38.152Z,7.30
2018-01-07T11:20:07.085Z,6.57
2018-01-07T11:22:35.466Z,7.23
2018-01-07T11:25:03.904Z,7.27
2018-01-07T11:27:33.559Z,6.80
2018-01-07T11:30:01.931Z,6.60
2018-01-07T11:32:30.318Z,6.40
2018-01-07T11:34:58.862Z,6.30
2018-01-07T11:37:28.066Z,6.70
2018-01-07T11:39:56.484Z,6.90
2018-01-07T11:42:24.870Z,7.20
2018-01-07T11:44:53.538Z,7.80
2018-01-07T11:47:21.904Z,7.37
2018-01-07T11:49:50.257Z,6.87
2018-01-07T11:52:19.657Z,7.20
2018-01-07T11:54:49.044Z,6.77
2018-01-07T11:57:18.346Z,6.60
2018-01-07T11:59:47.542Z,7.20
2018-01-07T12:02:16.074Z,7.27
2018-01-07T12:04:44.628Z,7.47
2018-01-07T12:07:13.184Z,8.10
2018-01-07T12:09:41.574Z,7.20
2018-01-07T12:12:10.721Z,7.80
2018-01-07T12:14:39.283Z,7.03
2018-01-07T12:17:07.635Z,7.40
2018-01-07T12:19:36.994Z,7.10
2018-01-07T12:22:05.579Z,7.40
2018-01-07T12:24:33.998Z,7.20
2018-01-07T12:27:02.366Z,6.70
2018-01-07T12:29:31.773Z,7.40
2018-01-07T12:32:00.724Z,7.00
2018-01-07T12:34:29.115Z,7.20
2018-01-07T12:36:57.524Z,6.63
2018-01-07T12:39:26.651Z,7.13
2018-01-07T12:41:56.303Z,7.63
2018-01-07T12:44:24.915Z,6.83
2018-01-07T12:46:53.296Z,7.30
2018-01-07T12:49:21.935Z,7.50
2018-01-07T12:51:50.786Z,6.77
2018-01-07T12:54:20.287Z,7.33
2018-01-07T12:56:48.648Z,7.47
2018-01-07T12:59:17.990Z,7.30
2018-01-07T13:01:46.579Z,7.60
2018-01-07T13:04:15.062Z,6.53
2018-01-07T13:06:43.695Z,7.30
2018-01-07T13:09:12.367Z,6.90
2018-01-07T13:11:40.957Z,7.10
2018-01-07T13:14:10.218Z,7.27
2018-01-07T13:16:39.349Z,7.33
2018-01-07T13:19:08.648Z,6.67
2018-01-07T13:21:37.971Z,7.30
2018-01-07T13:24:06.458Z,7.57
2018-01-07T13:26:34.869Z,7.57
2018-01-07T13:29:04.620Z,7.00
2018-01-07T13:31:33.409Z,7.50
2018-01-07T13:34:01.825Z,7.40
2018-01-07T13:36:30.454Z,6.90
2018-01-07T13:38:59.699Z,7.50
2018-01-07T13:41:28.111Z,6.73
2018-01-07T13:43:56.765Z,7.37
2018-01-07T13:46:25.201Z,7.93
2018-01-07T13:48:53.709Z,7.40
2018-01-07T13:51:22.834Z,7.17
2018-01-07T13:53:51.259Z,7.47
2018-01-07T13:56:20.489Z,7.17
2018-01-07T13:58:48.929Z,7.07
2018-01-07T14:01:17.306Z,7.60
2018-01-07T14:03:45.671Z,7.47
2018-01-07T14:06:14.239Z,7.10
2018-01-07T14:08:42.902Z,7.27
2018-01-07T14:11:11.440Z,7.27
2018-01-07T14:13:40.634Z,7.70
2018-01-07T14:16:09.844Z,7.07
2018-01-07T14:18:38.533Z,6.93
2018-01-07T14:21:07.930Z,6.90
2018-01-07T14:23:36.552Z,6.40
2018-01-07T14:26:04.981Z,6.90
2018-01-07T14:28:33.443Z,6.40
2018-01-07T14:31:03.800Z,6.90
2018-01-07T14:33:32.999Z,6.70
2018-01-07T14:36:02.167Z,7.07
2018-01-07T14:38:30.658Z,5.83
2018-01-07T14:40:58.920Z,6.03
2018-01-07T14:43:27.705Z,6.80
2018-01-07T14:45:56.375Z,6.83
2018-01-07T14:48:24.935Z,5.80
2018-01-07T14:50:53.938Z,6.60
2018-01-07T14:53:24.059Z,6.30
2018-01-07T14:55:52.859Z,6.20
2018-01-07T14:58:21.443Z,6.60
2018-01-07T15:00:49.887Z,6.17
2018-01-07T15:03:18.313Z,6.20
2018-01-07T15:05:47.192Z,6.60
2018-01-07T15:08:15.767Z,6.00
2018-01-07T15:10:44.186Z,6.57
2018-01-07T15:13:13.494Z,6.40
2018-01-07T15:15:42.945Z,6.10
2018-01-07T15:18:11.573Z,6.23
2018-01-07T15:20:41.318Z,6.13
2018-01-07T15:23:09.751Z,6.33
2018-01-07T15:25:38.699Z,6.57
2018-01-07T15:28:07.352Z,6.00
2018-01-07T15:30:36.881Z,6.63
2018-01-07T15:33:05.286Z,6.60
2018-01-07T15:35:33.797Z,5.80
2018-01-07T15:38:03.838Z,6.17
2018-01-07T15:40:33.235Z,6.10
2018-01-07T15:43:01.800Z,6.73
2018-01-07T15:45:31.777Z,6.00
2018-01-07T15:48:00.633Z,6.20
2018-01-07T15:50:29.162Z,6.00
2018-01-07T15:52:57.548Z,6.80
2018-01-07T15:55:26.875Z,6.13
2018-01-07T15:57:55.345Z,6.07
2018-01-07T16:00:24.499Z,6.00
2018-01-07T16:02:54.053Z,6.07
2018-01-07T16:05:22.496Z,7.00
2018-01-07T16:07:51.047Z,6.00
2018-01-07T16:10:19.481Z,6.10
2018-01-07T16:12:47.901Z,6.13
2018-01-07T16:15:16.292Z,6.03
2018-01-07T16:17:44.835Z,6.47
2018-01-07T16:20:13.968Z,6.57
2018-01-07T16:22:42.635Z,6.23
2018-01-07T16:25:11.185Z,6.47
2018-01-07T16:27:40.388Z,5.80
2018-01-07T16:30:09.678Z,6.77
2018-01-07T16:32:38.146Z,5.70
2018-01-07T16:35:07.315Z,6.50
2018-01-07T16:37:36.998Z,6.13
2018-01-07T16:40:05.457Z,6.40
2018-01-07T16:42:35.708Z,6.43
2018-01-07T16:45:04.204Z,6.93
2018-01-07T16:47:33.053Z,6.67
2018-01-07T16:50:01.774Z,6.03
2018-01-07T16:52:30.147Z,6.20
2018-01-07T16:54:58.563Z,6.30
2018-01-07T16:57:27.252Z,6.63
2018-01-07T16:59:55.802Z,6.80
2018-01-07T17:02:24.188Z,6.43
2018-01-07T17:04:52.588Z,6.70
2018-01-07T17:07:21.283Z,6.70
2018-01-07T17:09:49.685Z,5.97
2018-01-07T17:12:19.012Z,6.27
2018-01-07T17:14:48.870Z,6.30
2018-01-07T17:17:17.342Z,6.83
2018-01-07T17:19:45.922Z,6.17
2018-01-07T17:22:14.480Z,6.50
2018-01-07T17:24:42.923Z,6.70
2018-01-07T17:27:11.444Z,6.73
2018-01-07T17:29:39.853Z,6.60
2018-01-07T17:32:09.189Z,6.20
2018-01-07T17:34:37.899Z,6.10
2018-01-07T17:37:06.320Z,7.23
2018-01-07T17:39:35.495Z,6.70
2018-01-07T17:42:03.913Z,6.50
2018-01-07T17:44:33.206Z,7.07
2018-01-07T17:47:02.383Z,7.03
2018-01-07T17:49:30.751Z,7.20
2018-01-07T17:51:59.140Z,6.47
2018-01-07T17:54:28.543Z,7.77
2018-01-07T17:56:56.913Z,7.70
2018-01-07T17:59:25.364Z,6.90
2018-01-07T18:01:53.769Z,7.37
2018-01-07T18:04:22.329Z,7.77
2018-01-07T18:06:50.959Z,7.10
2018-01-07T18:09:20.213Z,6.80
2018-01-07T18:11:48.669Z,7.07
2018-01-07T18:14:17.179Z,7.90
2018-01-07T18:16:45.474Z,7.37
2018-01-07T18:19:14.187Z,7.80
2018-01-07T18:21:43.360Z,7.87
2018-01-07T18:24:11.905Z,7.63
2018-01-07T18:26:40.386Z,7.07
2018-01-07T18:29:09.058Z,7.03
2018-01-07T18:31:37.415Z,6.60
2018-01-07T18:34:06.586Z,7.50
2018-01-07T18:36:35.310Z,7.30
2018-01-07T18:39:03.150Z,7.73
2018-01-07T18:41:32.567Z,7.70
2018-01-07T18:44:01.725Z,7.43
2018-01-07T18:46:30.118Z,7.60
2018-01-07T18:48:58.804Z,7.03
2018-01-07T18:51:27.320Z,7.70
2018-01-07T18:53:55.720Z,7.70
2018-01-07T18:56:24.816Z,7.37
2018-01-07T18:58:53.352Z,8.30
2018-01-07T19:01:21.836Z,7.53
2018-01-07T19:03:51.123Z,7.90
2018-01-07T19:06:20.525Z,7.87
2018-01-07T19:08:49.023Z,7.03
2018-01-07T19:11:18.295Z,8.03
2018-01-07T19:13:46.788Z,7.80
2018-01-07T19:16:16.071Z,7.97
2018-01-07T19:18:44.507Z,7.10
2018-01-07T19:21:12.891Z,7.60
2018-01-07T19:23:41.333Z,8.10
2018-01-07T19:26:10.509Z,7.33
2018-01-07T19:28:39.053Z,7.33
2018-01-07T19:31:07.719Z,7.50
2018-01-07T19:33:36.107Z,7.33
2018-01-07T19:36:04.469Z,7.20
2018-01-07T19:38:32.971Z,7.33
2018-01-07T19:41:01.504Z,7.60
2018-01-07T19:43:29.932Z,7.43
2018-01-07T19:45:58.328Z,7.90
2018-01-07T19:48:26.708Z,7.97
2018-01-07T19:50:55.402Z,7.73
2018-01-07T19:53:23.818Z,7.63
2018-01-07T19:55:53.103Z,8.03
2018-01-07T19:58:21.523Z,7.87
2018-01-07T20:00:49.884Z,7.40
2018-01-07T20:03:19.635Z,7.47
2018-01-07T20:05:48.012Z,7.60
2018-01-07T20:08:16.394Z,7.80
2018-01-07T20:10:45.142Z,8.70
2018-01-07T20:13:13.555Z,7.47
2018-01-07T20:15:41.941Z,7.60
2018-01-07T20:18:10.338Z,7.80
2018-01-07T20:20:39.121Z,8.20
2018-01-07T20:23:07.565Z,6.83
2018-01-07T20:25:35.936Z,8.50
2018-01-07T20:28:04.324Z,7.67
2018-01-07T20:30:32.703Z,7.50
2018-01-07T20:33:01.080Z,7.37
2018-01-07T20:35:29.615Z,7.67
2018-01-07T20:37:58.903Z,7.60
2018-01-07T20:40:27.328Z,7.73
2018-01-07T20:42:55.708Z,8.13
2018-01-07T20:45:24.094Z,7.67
2018-01-07T20:47:52.481Z,8.10
2018-01-07T20:50:20.962Z,8.07
2018-01-07T20:52:49.586Z,7.73
2018-01-07T20:55:18.777Z,7.43
2018-01-07T20:57:47.311Z,7.43
2018-01-07T21:00:15.379Z,7.10
2018-01-07T21:02:43.769Z,7.80
2018-01-07T21:05:11.806Z,7.83
2018-01-07T21:07:40.244Z,8.33
2018-01-07T21:10:08.364Z,7.77
2018-01-07T21:12:36.431Z,7.27
2018-01-07T21:15:04.258Z,7.50
2018-01-07T21:17:32.648Z,7.70
2018-01-07T21:20:01.075Z,7.77
2018-01-07T21:22:29.824Z,8.27
2018-01-07T21:24:58.341Z,7.63
2018-01-07T21:27:26.722Z,8.33
2018-01-07T21:29:55.128Z,7.40
2018-01-07T21:32:24.276Z,7.70
2018-01-07T21:34:52.664Z,7.63
2018-01-07T21:37:21.102Z,7.70
2018-01-07T21:39:49.903Z,8.30
2018-01-07T21:42:19.100Z,8.10
2018-01-07T21:44:48.252Z,7.77
2018-01-07T21:47:16.320Z,9.07
2018-01-07T21:49:44.719Z,7.73
2018-01-07T21:52:13.082Z,8.13
2018-01-07T21:54:41.588Z,8.37
2018-01-07T21:57:10.743Z,8.27
2018-01-07T21:59:50.476Z,7.97
2018-01-07T22:02:27.939Z,8.40
2018-01-07T22:04:58.823Z,8.50
2018-01-07T22:07:27.202Z,7.83
2018-01-07T22:09:55.408Z,8.47
2018-01-07T22:12:23.805Z,8.90
2018-01-07T22:14:53.062Z,8.30
2018-01-07T22:17:21.478Z,8.63
2018-01-07T22:19:50.613Z,8.27
2018-01-07T22:22:19.013Z,9.23
2018-01-07T22:24:47.531Z,8.57
2018-01-07T22:27:16.697Z,8.90
2018-01-07T22:29:45.074Z,9.10
2018-01-07T22:32:13.573Z,8.80
2018-01-07T22:34:41.941Z,9.00
2018-01-07T22:37:10.287Z,8.80
2018-01-07T22:39:38.677Z,8.73
2018-01-07T22:42:07.211Z,8.40
2018-01-07T22:44:36.376Z,9.00
2018-01-07T22:47:04.547Z,8.90
2018-01-07T22:49:32.963Z,9.30
2018-01-07T22:52:01.365Z,9.47
2018-01-07T22:54:29.726Z,9.10
2018-01-07T22:56:58.085Z,8.70
2018-01-07T22:59:26.464Z,9.97
2018-01-07T23:01:54.844Z,9.00
2018-01-07T23:04:24.047Z,9.23
2018-01-07T23:06:52.474Z,9.47
2018-01-07T23:09:20.855Z,9.60
2018-01-07T23:11:49.373Z,9.63
2018-01-07T23:14:18.738Z,9.47
2018-01-07T23:16:47.121Z,9.27
2018-01-07T23:19:15.493Z,8.73
2018-01-07T23:21:43.927Z,9.37
2018-01-07T23:24:12.289Z,10.40
2018-01-07T23:26:41.697Z,10.70
2018-01-07T23:29:10.069Z,10.17
2018-01-07T23:31:40.051Z,10.07
2018-01-07T23:34:08.432Z,10.37
2018-01-07T23:36:36.839Z,10.20
2018-01-07T23:39:05.632Z,10.77
2018-01-07T23:41:34.782Z,10.33
2018-01-07T23:44:03.158Z,9.67
2018-01-07T23:46:31.944Z,10.27
2018-01-07T23:49:01.792Z,10.00
2018-01-07T23:51:30.930Z,9.33
2018-01-07T23:53:59.313Z,10.57
2018-01-07T23:56:27.683Z,9.93
2018-01-07T23:58:56.040Z,10.00
